sensor_id;sensor_type;location;lat;lon;timestamp;pressure;altitude;pressure_sealevel;temperature;humidity
74346;BME280;62776;50.518;6.732;2022-10-13T00:02:30;97023.56;;;9.37;100.00
74346;BME280;62776;50.518;6.732;2022-10-13T00:05:16;97024.44;;;9.36;100.00
74346;BME280;62776;50.518;6.732;2022-10-13T00:08:02;97024.44;;;9.36;100.00
74346;BME280;62776;50.518;6.732;2022-10-13T00:10:49;97020.09;;;9.35;100.00
74346;BME280;62776;50.518;6.732;2022-10-13T00:13:36;97021.84;;;9.36;100.00
74346;BME280;62776;50.518;6.732;2022-10-13T00:16:22;97018.38;;;9.37;100.00
74346;BME280;62776;50.518;6.732;2022-10-13T00:19:08;97016.66;;;9.39;100.00
74346;BME280;62776;50.518;6.732;2022-10-13T00:21:54;97017.50;;;9.42;100.00
74346;BME280;62776;50.518;6.732;2022-10-13T00:24:40;97021.00;;;9.44;100.00
74346;BME280;62776;50.518;6.732;2022-10-13T00:27:26;97011.47;;;9.48;100.00
74346;BME280;62776;50.518;6.732;2022-10-13T00:30:12;97010.63;;;9.52;100.00
74346;BME280;62776;50.518;6.732;2022-10-13T00:32:58;97008.88;;;9.59;100.00
74346;BME280;62776;50.518;6.732;2022-10-13T00:35:46;97009.75;;;9.58;100.00
74346;BME280;62776;50.518;6.732;2022-10-13T00:38:33;97010.63;;;9.63;100.00
74346;BME280;62776;50.518;6.732;2022-10-13T00:41:19;97002.84;;;9.66;100.00
74346;BME280;62776;50.518;6.732;2022-10-13T00:47:12;97001.97;;;9.73;100.00
74346;BME280;62776;50.518;6.732;2022-10-13T00:49:59;97007.19;;;9.77;100.00
74346;BME280;62776;50.518;6.732;2022-10-13T00:52:47;97001.97;;;9.82;100.00
74346;BME280;62776;50.518;6.732;2022-10-13T00:55:35;97000.25;;;9.85;100.00
74346;BME280;62776;50.518;6.732;2022-10-13T00:58:25;96991.56;;;9.89;100.00
74346;BME280;62776;50.518;6.732;2022-10-13T01:01:16;96995.03;;;9.50;100.00
74346;BME280;62776;50.518;6.732;2022-10-13T01:04:02;96992.47;;;9.91;100.00
74346;BME280;62776;50.518;6.732;2022-10-13T01:06:49;96990.72;;;9.98;100.00
74346;BME280;62776;50.518;6.732;2022-10-13T01:09:36;96988.09;;;10.04;100.00
74346;BME280;62776;50.518;6.732;2022-10-13T01:15:27;96988.97;;;10.04;100.00
74346;BME280;62776;50.518;6.732;2022-10-13T01:18:38;96974.28;;;10.05;100.00
74346;BME280;62776;50.518;6.732;2022-10-13T01:34:25;96969.09;;;10.19;100.00
74346;BME280;62776;50.518;6.732;2022-10-13T01:43:22;96961.25;;;10.25;100.00
74346;BME280;62776;50.518;6.732;2022-10-13T01:46:23;96952.59;;;10.23;100.00
74346;BME280;62776;50.518;6.732;2022-10-13T01:49:13;96953.47;;;10.32;100.00
74346;BME280;62776;50.518;6.732;2022-10-13T01:52:07;96956.94;;;10.30;100.00
74346;BME280;62776;50.518;6.732;2022-10-13T01:54:54;96945.63;;;10.38;100.00
74346;BME280;62776;50.518;6.732;2022-10-13T01:57:42;96950.81;;;10.38;100.00
74346;BME280;62776;50.518;6.732;2022-10-13T02:00:30;96941.31;;;10.40;100.00
74346;BME280;62776;50.518;6.732;2022-10-13T02:03:29;96930.03;;;10.40;100.00
74346;BME280;62776;50.518;6.732;2022-10-13T02:06:32;96931.75;;;10.42;100.00
74346;BME280;62776;50.518;6.732;2022-10-13T02:15:20;96932.63;;;10.46;100.00
74346;BME280;62776;50.518;6.732;2022-10-13T02:18:10;96934.34;;;10.48;100.00
74346;BME280;62776;50.518;6.732;2022-10-13T02:20:58;96919.59;;;10.50;100.00
74346;BME280;62776;50.518;6.732;2022-10-13T02:23:45;96925.66;;;10.51;100.00
74346;BME280;62776;50.518;6.732;2022-10-13T02:26:32;96923.06;;;10.51;100.00
74346;BME280;62776;50.518;6.732;2022-10-13T02:29:19;96920.44;;;10.52;100.00
74346;BME280;62776;50.518;6.732;2022-10-13T02:32:05;96923.06;;;10.51;100.00
74346;BME280;62776;50.518;6.732;2022-10-13T02:34:51;96922.22;;;10.52;100.00
74346;BME280;62776;50.518;6.732;2022-10-13T02:37:37;96927.41;;;10.52;100.00
74346;BME280;62776;50.518;6.732;2022-10-13T02:40:24;96928.25;;;10.52;100.00
74346;BME280;62776;50.518;6.732;2022-10-13T02:43:10;96928.25;;;10.52;100.00
74346;BME280;62776;50.518;6.732;2022-10-13T02:45:56;96933.44;;;10.54;100.00
74346;BME280;62776;50.518;6.732;2022-10-13T02:48:42;96934.31;;;10.54;100.00
74346;BME280;62776;50.518;6.732;2022-10-13T02:51:28;96938.63;;;10.58;100.00
74346;BME280;62776;50.518;6.732;2022-10-13T02:54:14;96930.78;;;10.63;100.00
74346;BME280;62776;50.518;6.732;2022-10-13T02:57:00;96932.53;;;10.67;100.00
74346;BME280;62776;50.518;6.732;2022-10-13T02:59:46;96926.47;;;10.68;100.00
74346;BME280;62776;50.518;6.732;2022-10-13T03:02:32;96926.41;;;10.74;100.00
74346;BME280;62776;50.518;6.732;2022-10-13T03:05:18;96931.59;;;10.77;100.00
74346;BME280;62776;50.518;6.732;2022-10-13T03:08:05;96928.97;;;10.80;100.00
74346;BME280;62776;50.518;6.732;2022-10-13T03:10:51;96931.56;;;10.83;100.00
74346;BME280;62776;50.518;6.732;2022-10-13T03:13:37;96933.28;;;10.87;100.00
74346;BME280;62776;50.518;6.732;2022-10-13T03:16:23;96936.72;;;10.92;100.00
74346;BME280;62776;50.518;6.732;2022-10-13T03:19:10;96928.91;;;10.95;100.00
74346;BME280;62776;50.518;6.732;2022-10-13T03:21:56;96922.81;;;10.96;100.00
74346;BME280;62776;50.518;6.732;2022-10-13T03:24:42;96921.09;;;10.95;100.00
74346;BME280;62776;50.518;6.732;2022-10-13T03:27:28;96909.84;;;10.95;100.00
74346;BME280;62776;50.518;6.732;2022-10-13T03:30:14;96905.47;;;10.97;100.00
74346;BME280;62776;50.518;6.732;2022-10-13T03:33:00;96907.22;;;10.95;100.00
74346;BME280;62776;50.518;6.732;2022-10-13T03:35:46;96901.16;;;10.94;100.00
74346;BME280;62776;50.518;6.732;2022-10-13T03:38:34;96891.59;;;10.96;100.00
74346;BME280;62776;50.518;6.732;2022-10-13T03:41:20;96884.69;;;10.95;100.00
74346;BME280;62776;50.518;6.732;2022-10-13T03:44:08;96877.78;;;10.93;100.00
74346;BME280;62776;50.518;6.732;2022-10-13T03:46:55;96872.59;;;10.88;100.00
74346;BME280;62776;50.518;6.732;2022-10-13T03:49:41;96868.28;;;10.84;100.00
74346;BME280;62776;50.518;6.732;2022-10-13T03:52:27;96869.16;;;10.83;100.00
74346;BME280;62776;50.518;6.732;2022-10-13T03:55:14;96874.34;;;10.83;100.00
74346;BME280;62776;50.518;6.732;2022-10-13T03:58:00;96872.66;;;10.82;100.00
74346;BME280;62776;50.518;6.732;2022-10-13T04:00:46;96867.44;;;10.82;100.00
74346;BME280;62776;50.518;6.732;2022-10-13T04:03:33;96868.31;;;10.81;100.00
74346;BME280;62776;50.518;6.732;2022-10-13T04:06:19;96864.00;;;10.77;100.00
74346;BME280;62776;50.518;6.732;2022-10-13T04:09:06;96859.66;;;10.79;100.00
74346;BME280;62776;50.518;6.732;2022-10-13T04:11:52;96849.25;;;10.78;100.00
74346;BME280;62776;50.518;6.732;2022-10-13T04:14:38;96850.13;;;10.78;100.00
74346;BME280;62776;50.518;6.732;2022-10-13T04:17:25;96855.34;;;10.75;100.00
74346;BME280;62776;50.518;6.732;2022-10-13T04:20:11;96851.91;;;10.73;100.00
74346;BME280;62776;50.518;6.732;2022-10-13T04:22:57;96851.03;;;10.70;100.00
74346;BME280;62776;50.518;6.732;2022-10-13T04:25:43;96853.66;;;10.68;100.00
74346;BME280;62776;50.518;6.732;2022-10-13T04:28:30;96856.28;;;10.65;100.00
74346;BME280;62776;50.518;6.732;2022-10-13T04:31:21;96864.16;;;10.54;100.00
74346;BME280;62776;50.518;6.732;2022-10-13T04:34:08;96865.00;;;10.53;100.00
74346;BME280;62776;50.518;6.732;2022-10-13T04:36:54;96865.00;;;10.50;100.00
74346;BME280;62776;50.518;6.732;2022-10-13T04:39:40;96867.63;;;10.49;100.00
74346;BME280;62776;50.518;6.732;2022-10-13T04:42:26;96870.22;;;10.49;100.00
74346;BME280;62776;50.518;6.732;2022-10-13T04:45:12;96858.94;;;10.50;100.00
74346;BME280;62776;50.518;6.732;2022-10-13T04:48:00;96858.97;;;10.47;100.00
74346;BME280;62776;50.518;6.732;2022-10-13T04:50:46;96860.69;;;10.48;100.00
74346;BME280;62776;50.518;6.732;2022-10-13T04:53:32;96858.09;;;10.48;100.00
74346;BME280;62776;50.518;6.732;2022-10-13T04:56:18;96852.94;;;10.46;100.00
74346;BME280;62776;50.518;6.732;2022-10-13T04:59:05;96845.97;;;10.44;100.00
74346;BME280;62776;50.518;6.732;2022-10-13T05:01:51;96850.31;;;10.46;100.00
74346;BME280;62776;50.518;6.732;2022-10-13T05:04:37;96845.16;;;10.43;100.00
74346;BME280;62776;50.518;6.732;2022-10-13T05:07:23;96839.94;;;10.42;100.00
74346;BME280;62776;50.518;6.732;2022-10-13T05:10:09;96839.06;;;10.43;100.00
74346;BME280;62776;50.518;6.732;2022-10-13T05:12:55;96835.63;;;10.39;100.00
74346;BME280;62776;50.518;6.732;2022-10-13T05:15:42;96840.81;;;10.41;100.00
74346;BME280;62776;50.518;6.732;2022-10-13T05:18:28;96839.94;;;10.42;100.00
74346;BME280;62776;50.518;6.732;2022-10-13T05:21:24;96833.03;;;10.36;100.00
74346;BME280;62776;50.518;6.732;2022-10-13T05:24:11;96830.41;;;10.45;100.00
74346;BME280;62776;50.518;6.732;2022-10-13T05:26:58;96823.44;;;10.47;100.00
74346;BME280;62776;50.518;6.732;2022-10-13T05:29:44;96816.50;;;10.49;100.00
74346;BME280;62776;50.518;6.732;2022-10-13T05:32:30;96822.56;;;10.50;100.00
74346;BME280;62776;50.518;6.732;2022-10-13T05:35:16;96818.25;;;10.49;100.00
74346;BME280;62776;50.518;6.732;2022-10-13T05:38:02;96813.06;;;10.49;100.00
74346;BME280;62776;50.518;6.732;2022-10-13T05:40:48;96815.69;;;10.43;100.00
74346;BME280;62776;50.518;6.732;2022-10-13T05:43:36;96814.84;;;10.36;100.00
74346;BME280;62776;50.518;6.732;2022-10-13T05:46:23;96820.91;;;10.37;100.00
74346;BME280;62776;50.518;6.732;2022-10-13T05:49:09;96813.13;;;10.34;100.00
74346;BME280;62776;50.518;6.732;2022-10-13T05:51:59;96811.41;;;10.31;100.00
74346;BME280;62776;50.518;6.732;2022-10-13T05:54:48;96817.47;;;10.32;100.00
74346;BME280;62776;50.518;6.732;2022-10-13T05:57:40;96817.50;;;10.29;100.00
74346;BME280;62776;50.518;6.732;2022-10-13T06:00:28;96820.06;;;10.33;100.00
74346;BME280;62776;50.518;6.732;2022-10-13T06:03:18;96820.06;;;10.32;100.00
74346;BME280;62776;50.518;6.732;2022-10-13T06:06:06;96815.75;;;10.35;100.00
74346;BME280;62776;50.518;6.732;2022-10-13T06:08:53;96807.91;;;10.38;100.00
74346;BME280;62776;50.518;6.732;2022-10-13T06:11:39;96808.78;;;10.40;100.00
74346;BME280;62776;50.518;6.732;2022-10-13T06:14:25;96803.53;;;10.45;100.00
74346;BME280;62776;50.518;6.732;2022-10-13T06:17:11;96800.94;;;10.48;100.00
74346;BME280;62776;50.518;6.732;2022-10-13T06:19:57;96798.31;;;10.48;100.00
74346;BME280;62776;50.518;6.732;2022-10-13T06:22:44;96800.91;;;10.49;100.00
74346;BME280;62776;50.518;6.732;2022-10-13T06:25:31;96812.16;;;10.53;100.00
74346;BME280;62776;50.518;6.732;2022-10-13T06:28:18;96809.56;;;10.54;100.00
74346;BME280;62776;50.518;6.732;2022-10-13T06:31:05;96813.00;;;10.59;100.00
74346;BME280;62776;50.518;6.732;2022-10-13T06:33:51;96819.88;;;10.63;100.00
74346;BME280;62776;50.518;6.732;2022-10-13T06:36:37;96814.66;;;10.66;100.00
74346;BME280;62776;50.518;6.732;2022-10-13T06:39:24;96814.66;;;10.70;100.00
74346;BME280;62776;50.518;6.732;2022-10-13T06:42:11;96813.75;;;10.72;100.00
74346;BME280;62776;50.518;6.732;2022-10-13T06:44:57;96814.63;;;10.73;100.00
74346;BME280;62776;50.518;6.732;2022-10-13T06:47:43;96813.75;;;10.77;100.00
74346;BME280;62776;50.518;6.732;2022-10-13T06:50:30;96809.41;;;10.76;100.00
74346;BME280;62776;50.518;6.732;2022-10-13T06:53:17;96812.00;;;10.77;100.00
74346;BME280;62776;50.518;6.732;2022-10-13T06:56:05;96815.47;;;10.76;100.00
74346;BME280;62776;50.518;6.732;2022-10-13T06:58:51;96813.72;;;10.78;100.00
74346;BME280;62776;50.518;6.732;2022-10-13T07:01:37;96814.56;;;10.82;100.00
74346;BME280;62776;50.518;6.732;2022-10-13T07:04:24;96818.88;;;10.83;100.00
74346;BME280;62776;50.518;6.732;2022-10-13T07:07:10;96815.41;;;10.85;100.00
74346;BME280;62776;50.518;6.732;2022-10-13T07:09:56;96816.25;;;10.89;100.00
74346;BME280;62776;50.518;6.732;2022-10-13T07:12:42;96820.56;;;10.91;100.00
74346;BME280;62776;50.518;6.732;2022-10-13T07:15:28;96825.75;;;10.94;100.00
74346;BME280;62776;50.518;6.732;2022-10-13T07:18:15;96823.97;;;10.99;100.00
74346;BME280;62776;50.518;6.732;2022-10-13T07:21:02;96822.19;;;11.04;100.00
74346;BME280;62776;50.518;6.732;2022-10-13T07:23:48;96819.53;;;11.10;100.00
74346;BME280;62776;50.518;6.732;2022-10-13T07:26:34;96818.66;;;11.14;100.00
74346;BME280;62776;50.518;6.732;2022-10-13T07:29:21;96820.31;;;11.23;100.00
74346;BME280;62776;50.518;6.732;2022-10-13T07:32:07;96817.63;;;11.31;100.00
74346;BME280;62776;50.518;6.732;2022-10-13T07:34:54;96820.16;;;11.40;100.00
74346;BME280;62776;50.518;6.732;2022-10-13T07:37:40;96813.16;;;11.48;100.00
74346;BME280;62776;50.518;6.732;2022-10-13T07:40:26;96815.66;;;11.54;100.00
74346;BME280;62776;50.518;6.732;2022-10-13T07:43:12;96812.13;;;11.59;100.00
74346;BME280;62776;50.518;6.732;2022-10-13T07:45:59;96804.25;;;11.68;100.00
74346;BME280;62776;50.518;6.732;2022-10-13T07:48:45;96795.47;;;11.80;100.00
74346;BME280;62776;50.518;6.732;2022-10-13T07:51:32;96801.47;;;11.87;100.00
74346;BME280;62776;50.518;6.732;2022-10-13T07:54:18;96804.03;;;11.91;100.00
74346;BME280;62776;50.518;6.732;2022-10-13T07:57:04;96795.28;;;11.95;100.00
74346;BME280;62776;50.518;6.732;2022-10-13T07:59:50;96793.50;;;12.00;100.00
74346;BME280;62776;50.518;6.732;2022-10-13T08:02:36;96808.28;;;11.98;100.00
74346;BME280;62776;50.518;6.732;2022-10-13T08:05:22;96798.75;;;11.97;100.00
74346;BME280;62776;50.518;6.732;2022-10-13T08:08:08;96802.25;;;11.93;100.00
74346;BME280;62776;50.518;6.732;2022-10-13T08:10:59;96810.03;;;11.96;100.00
74346;BME280;62776;50.518;6.732;2022-10-13T08:13:47;96795.28;;;11.95;100.00
74346;BME280;62776;50.518;6.732;2022-10-13T08:16:33;96807.41;;;11.98;100.00
74346;BME280;62776;50.518;6.732;2022-10-13T08:19:19;96801.25;;;12.03;100.00
74346;BME280;62776;50.518;6.732;2022-10-13T08:22:07;96803.00;;;12.04;100.00
74346;BME280;62776;50.518;6.732;2022-10-13T08:24:54;96801.16;;;12.12;100.00
74346;BME280;62776;50.518;6.732;2022-10-13T08:27:40;96799.38;;;12.14;100.00
74346;BME280;62776;50.518;6.732;2022-10-13T08:30:26;96808.03;;;12.19;100.00
74346;BME280;62776;50.518;6.732;2022-10-13T08:33:13;96796.66;;;12.23;100.00
74346;BME280;62776;50.518;6.732;2022-10-13T08:35:59;96793.16;;;12.27;100.00
74346;BME280;62776;50.518;6.732;2022-10-13T08:38:45;96796.41;;;12.41;100.00
74346;BME280;62776;50.518;6.732;2022-10-13T08:41:37;96794.63;;;12.47;100.00
74346;BME280;62776;50.518;6.732;2022-10-13T08:44:34;96797.16;;;12.51;100.00
74346;BME280;62776;50.518;6.732;2022-10-13T08:47:43;96784.09;;;12.53;100.00
74346;BME280;62776;50.518;6.732;2022-10-13T08:50:33;96791.59;;;12.75;100.00
74346;BME280;62776;50.518;6.732;2022-10-13T08:53:41;96795.97;;;12.72;100.00
74346;BME280;62776;50.518;6.732;2022-10-13T08:56:30;96785.31;;;12.87;100.00
74346;BME280;62776;50.518;6.732;2022-10-13T08:59:18;96793.94;;;12.93;100.00
74346;BME280;62776;50.518;6.732;2022-10-13T09:02:32;96790.59;;;12.84;100.00
74346;BME280;62776;50.518;6.732;2022-10-13T09:05:42;96787.16;;;12.82;100.00
74346;BME280;62776;50.518;6.732;2022-10-13T09:08:52;96792.16;;;12.95;100.00
74346;BME280;62776;50.518;6.732;2022-10-13T09:11:42;96788.53;;;13.04;100.00
74346;BME280;62776;50.518;6.732;2022-10-13T09:14:31;96796.22;;;13.13;100.00
74346;BME280;62776;50.518;6.732;2022-10-13T09:17:22;96800.47;;;13.19;100.00
74346;BME280;62776;50.518;6.732;2022-10-13T09:20:22;96793.59;;;13.15;100.00
74346;BME280;62776;50.518;6.732;2022-10-13T09:23:20;96798.75;;;13.21;100.00
74346;BME280;62776;50.518;6.732;2022-10-13T09:26:15;96801.94;;;13.36;100.00
74346;BME280;62776;50.518;6.732;2022-10-13T09:29:08;96795.84;;;13.36;100.00
74346;BME280;62776;50.518;6.732;2022-10-13T09:32:17;96795.13;;;13.28;100.00
74346;BME280;62776;50.518;6.732;2022-10-13T09:35:21;96791.59;;;13.30;100.00
74346;BME280;62776;50.518;6.732;2022-10-13T09:38:33;96798.69;;;13.22;100.00
74346;BME280;62776;50.518;6.732;2022-10-13T09:41:20;96789.72;;;13.38;100.00
74346;BME280;62776;50.518;6.732;2022-10-13T09:44:27;96797.66;;;13.32;100.00
74346;BME280;62776;50.518;6.732;2022-10-13T09:47:20;96794.97;;;13.35;100.00
74346;BME280;62776;50.518;6.732;2022-10-13T09:50:23;96790.69;;;13.33;100.00
74346;BME280;62776;50.518;6.732;2022-10-13T09:53:24;96793.22;;;13.37;100.00
74346;BME280;62776;50.518;6.732;2022-10-13T09:59:29;96793.91;;;13.48;100.00
74346;BME280;62776;50.518;6.732;2022-10-13T10:05:24;96780.75;;;13.53;100.00
74346;BME280;62776;50.518;6.732;2022-10-13T10:08:24;96780.72;;;13.54;100.00
74346;BME280;62776;50.518;6.732;2022-10-13T10:11:17;96776.25;;;13.61;100.00
74346;BME280;62776;50.518;6.732;2022-10-13T10:14:33;96775.63;;;13.47;100.00
74346;BME280;62776;50.518;6.732;2022-10-13T10:20:39;96768.09;;;13.78;100.00
74346;BME280;62776;50.518;6.732;2022-10-13T10:35:14;96745.06;;;14.39;100.00
74346;BME280;62776;50.518;6.732;2022-10-13T10:41:15;96732.06;;;14.36;100.00
74346;BME280;62776;50.518;6.732;2022-10-13T10:44:24;96733.66;;;14.42;100.00
74346;BME280;62776;50.518;6.732;2022-10-13T10:47:38;96737.56;;;14.21;100.00
74346;BME280;62776;50.518;6.732;2022-10-13T10:50:28;96731.28;;;14.30;99.85
74346;BME280;62776;50.518;6.732;2022-10-13T10:53:38;96731.69;;;14.10;100.00
74346;BME280;62776;50.518;6.732;2022-10-13T10:56:34;96740.19;;;14.21;100.00
74346;BME280;62776;50.518;6.732;2022-10-13T10:59:35;96740.28;;;14.16;99.97
74346;BME280;62776;50.518;6.732;2022-10-13T11:05:23;96723.09;;;14.05;100.00
74346;BME280;62776;50.518;6.732;2022-10-13T11:08:38;96719.03;;;13.90;100.00
74346;BME280;62776;50.518;6.732;2022-10-13T11:19:52;96705.97;;;14.33;100.00
74346;BME280;62776;50.518;6.732;2022-10-13T11:22:38;96704.16;;;14.35;99.95
74346;BME280;62776;50.518;6.732;2022-10-13T11:25:37;96709.50;;;14.29;99.09
74346;BME280;62776;50.518;6.732;2022-10-13T11:31:30;96698.50;;;14.53;100.00
74346;BME280;62776;50.518;6.732;2022-10-13T11:34:31;96687.94;;;14.58;99.82
74346;BME280;62776;50.518;6.732;2022-10-13T11:37:26;96691.25;;;14.64;99.80
74346;BME280;62776;50.518;6.732;2022-10-13T11:52:26;96683.09;;;14.41;100.00
74346;BME280;62776;50.518;6.732;2022-10-13T11:56:17;96677.88;;;14.41;100.00
74346;BME280;62776;50.518;6.732;2022-10-13T11:58:33;96677.81;;;14.43;100.00
74346;BME280;62776;50.518;6.732;2022-10-13T12:01:26;96683.19;;;14.38;100.00
74346;BME280;62776;50.518;6.732;2022-10-13T12:04:14;96681.59;;;14.30;100.00
74346;BME280;62776;50.518;6.732;2022-10-13T12:07:04;96671.31;;;14.22;100.00
74346;BME280;62776;50.518;6.732;2022-10-13T12:09:53;96669.59;;;14.21;100.00
74346;BME280;62776;50.518;6.732;2022-10-13T12:12:47;96675.88;;;14.12;100.00
74346;BME280;62776;50.518;6.732;2022-10-13T12:15:37;96671.53;;;13.73;100.00
74346;BME280;62776;50.518;6.732;2022-10-13T12:18:33;96666.47;;;14.04;100.00
74346;BME280;62776;50.518;6.732;2022-10-13T12:21:22;96667.09;;;14.15;100.00
74346;BME280;62776;50.518;6.732;2022-10-13T12:24:11;96661.72;;;14.23;100.00
74346;BME280;62776;50.518;6.732;2022-10-13T12:26:58;96666.03;;;14.25;100.00
74346;BME280;62776;50.518;6.732;2022-10-13T12:29:54;96659.78;;;14.31;100.00
74346;BME280;62776;50.518;6.732;2022-10-13T12:32:49;96658.00;;;14.31;100.00
74346;BME280;62776;50.518;6.732;2022-10-13T12:35:35;96650.72;;;14.47;100.00
74346;BME280;62776;50.518;6.732;2022-10-13T12:38:21;96657.63;;;14.49;100.00
74346;BME280;62776;50.518;6.732;2022-10-13T12:41:08;96644.47;;;14.52;100.00
74346;BME280;62776;50.518;6.732;2022-10-13T12:43:55;96648.88;;;14.50;100.00
74346;BME280;62776;50.518;6.732;2022-10-13T12:46:46;96648.91;;;14.49;100.00
74346;BME280;62776;50.518;6.732;2022-10-13T12:49:35;96642.06;;;14.45;100.00
74346;BME280;62776;50.518;6.732;2022-10-13T12:52:23;96649.78;;;14.49;100.00
74346;BME280;62776;50.518;6.732;2022-10-13T12:54:56;96644.47;;;14.52;100.00
74346;BME280;62776;50.518;6.732;2022-10-13T12:57:45;96646.09;;;14.58;100.00
74346;BME280;62776;50.518;6.732;2022-10-13T13:00:32;96648.63;;;14.61;100.00
74346;BME280;62776;50.518;6.732;2022-10-13T13:03:22;96644.25;;;14.61;100.00
74346;BME280;62776;50.518;6.732;2022-10-13T13:06:21;96640.81;;;14.59;100.00
74346;BME280;62776;50.518;6.732;2022-10-13T13:09:19;96638.19;;;14.61;100.00
74346;BME280;62776;50.518;6.732;2022-10-13T13:12:18;96631.16;;;14.61;100.00
74346;BME280;62776;50.518;6.732;2022-10-13T13:15:31;96641.66;;;14.60;100.00
74346;BME280;62776;50.518;6.732;2022-10-13T13:18:35;96638.84;;;14.69;100.00
74346;BME280;62776;50.518;6.732;2022-10-13T13:21:24;96632.41;;;14.81;100.00
74346;BME280;62776;50.518;6.732;2022-10-13T13:24:10;96633.25;;;14.83;100.00
74346;BME280;62776;50.518;6.732;2022-10-13T13:26:56;96635.00;;;14.82;100.00
74346;BME280;62776;50.518;6.732;2022-10-13T13:29:43;96627.19;;;14.81;100.00
74346;BME280;62776;50.518;6.732;2022-10-13T13:32:29;96626.28;;;14.82;100.00
74346;BME280;62776;50.518;6.732;2022-10-13T13:35:15;96616.69;;;14.82;100.00
74346;BME280;62776;50.518;6.732;2022-10-13T13:38:02;96621.94;;;14.81;100.00
74346;BME280;62776;50.518;6.732;2022-10-13T13:40:49;96620.16;;;14.83;100.00
74346;BME280;62776;50.518;6.732;2022-10-13T13:43:35;96613.19;;;14.83;100.00
74346;BME280;62776;50.518;6.732;2022-10-13T13:46:23;96616.69;;;14.82;100.00
74346;BME280;62776;50.518;6.732;2022-10-13T13:49:11;96611.41;;;14.84;100.00
74346;BME280;62776;50.518;6.732;2022-10-13T13:51:57;96607.81;;;14.88;100.00
74346;BME280;62776;50.518;6.732;2022-10-13T13:54:43;96605.13;;;14.91;100.00
74346;BME280;62776;50.518;6.732;2022-10-13T13:57:29;96603.25;;;14.96;100.00
74346;BME280;62776;50.518;6.732;2022-10-13T14:00:16;96605.03;;;14.94;100.00
74346;BME280;62776;50.518;6.732;2022-10-13T14:03:02;96596.28;;;14.95;100.00
74346;BME280;62776;50.518;6.732;2022-10-13T14:05:48;96595.44;;;14.94;100.00
74346;BME280;62776;50.518;6.732;2022-10-13T14:08:35;96594.66;;;14.91;100.00
74346;BME280;62776;50.518;6.732;2022-10-13T14:11:26;96589.41;;;14.91;100.00
74346;BME280;62776;50.518;6.732;2022-10-13T14:14:12;96586.72;;;14.94;100.00
74346;BME280;62776;50.518;6.732;2022-10-13T14:16:59;96588.41;;;14.96;100.00
74346;BME280;62776;50.518;6.732;2022-10-13T14:19:45;96585.88;;;14.92;100.00
74346;BME280;62776;50.518;6.732;2022-10-13T14:22:31;96577.06;;;14.96;100.00
74346;BME280;62776;50.518;6.732;2022-10-13T14:25:18;96578.78;;;14.97;100.00
74346;BME280;62776;50.518;6.732;2022-10-13T14:28:04;96583.19;;;14.95;100.00
74346;BME280;62776;50.518;6.732;2022-10-13T14:30:50;96574.50;;;14.94;100.00
74346;BME280;62776;50.518;6.732;2022-10-13T14:33:37;96581.59;;;14.89;100.00
74346;BME280;62776;50.518;6.732;2022-10-13T14:36:24;96570.38;;;14.86;100.00
74346;BME280;62776;50.518;6.732;2022-10-13T14:39:10;96579.09;;;14.85;100.00
74346;BME280;62776;50.518;6.732;2022-10-13T14:41:56;96572.22;;;14.81;100.00
74346;BME280;62776;50.518;6.732;2022-10-13T14:44:42;96575.84;;;14.76;100.00
74346;BME280;62776;50.518;6.732;2022-10-13T14:47:28;96584.50;;;14.78;100.00
74346;BME280;62776;50.518;6.732;2022-10-13T14:50:14;96575.78;;;14.78;100.00
74346;BME280;62776;50.518;6.732;2022-10-13T14:53:01;96582.00;;;14.74;100.00
74346;BME280;62776;50.518;6.732;2022-10-13T14:55:47;96576.81;;;14.72;100.00
74346;BME280;62776;50.518;6.732;2022-10-13T14:58:35;96568.94;;;14.72;100.00
74346;BME280;62776;50.518;6.732;2022-10-13T15:01:21;96573.44;;;14.69;100.00
74346;BME280;62776;50.518;6.732;2022-10-13T15:04:08;96569.13;;;14.66;100.00
74346;BME280;62776;50.518;6.732;2022-10-13T15:06:54;96572.72;;;14.62;100.00
74346;BME280;62776;50.518;6.732;2022-10-13T15:09:40;96570.25;;;14.56;100.00
74346;BME280;62776;50.518;6.732;2022-10-13T15:12:26;96561.66;;;14.51;100.00
74346;BME280;62776;50.518;6.732;2022-10-13T15:15:12;96566.09;;;14.49;100.00
74346;BME280;62776;50.518;6.732;2022-10-13T15:17:59;96565.31;;;14.46;100.00
74346;BME280;62776;50.518;6.732;2022-10-13T15:20:46;96558.53;;;14.37;100.00
74346;BME280;62776;50.518;6.732;2022-10-13T15:23:32;96561.28;;;14.33;100.00
74346;BME280;62776;50.518;6.732;2022-10-13T15:26:19;96566.56;;;14.30;100.00
74346;BME280;62776;50.518;6.732;2022-10-13T15:29:05;96565.66;;;14.31;100.00
74346;BME280;62776;50.518;6.732;2022-10-13T15:31:51;96570.03;;;14.30;100.00
74346;BME280;62776;50.518;6.732;2022-10-13T15:34:38;96564.81;;;14.30;100.00
74346;BME280;62776;50.518;6.732;2022-10-13T15:37:24;96558.66;;;14.33;100.00
74346;BME280;62776;50.518;6.732;2022-10-13T15:40:11;96556.03;;;14.31;100.00
74346;BME280;62776;50.518;6.732;2022-10-13T15:42:57;96556.91;;;14.33;100.00
74346;BME280;62776;50.518;6.732;2022-10-13T15:45:53;96552.81;;;14.22;100.00
74346;BME280;62776;50.518;6.732;2022-10-13T15:48:40;96555.28;;;14.28;100.00
74346;BME280;62776;50.518;6.732;2022-10-13T15:51:26;96565.81;;;14.25;100.00
74346;BME280;62776;50.518;6.732;2022-10-13T15:54:12;96560.56;;;14.25;100.00
74346;BME280;62776;50.518;6.732;2022-10-13T15:56:59;96560.66;;;14.22;100.00
74346;BME280;62776;50.518;6.732;2022-10-13T15:59:45;96553.69;;;14.20;100.00
74346;BME280;62776;50.518;6.732;2022-10-13T16:02:34;96558.09;;;14.20;100.00
74346;BME280;62776;50.518;6.732;2022-10-13T16:05:20;96549.47;;;14.15;100.00
74346;BME280;62776;50.518;6.732;2022-10-13T16:08:06;96553.00;;;14.14;100.00